createdAt,value
2018-07-16T00:00:59.942Z,77.40
2018-07-16T00:03:02.057Z,77.70
2018-07-16T00:05:04.525Z,78.70
2018-07-16T00:07:06.614Z,79.40
2018-07-16T00:09:08.687Z,80.50
2018-07-16T00:11:10.771Z,79.30
2018-07-16T00:13:12.834Z,79.40
2018-07-16T00:15:14.887Z,79.30
2018-07-16T00:17:16.966Z,77.50
2018-07-16T00:19:19.046Z,78.50
2018-07-16T00:21:21.101Z,80.70
2018-07-16T00:23:23.169Z,84.60
2018-07-16T00:25:25.230Z,82.80
2018-07-16T00:27:27.305Z,82.80
2018-07-16T00:29:29.361Z,82.10
2018-07-16T00:31:31.457Z,83.30
2018-07-16T00:33:33.553Z,83.90
2018-07-16T00:35:35.622Z,83.90
2018-07-16T00:37:37.673Z,83.90
2018-07-16T00:39:39.725Z,83.80
2018-07-16T00:41:42.029Z,83.80
2018-07-16T00:43:44.085Z,79.30
2018-07-16T00:45:46.149Z,78.80
2018-07-16T00:47:48.209Z,76.40
2018-07-16T00:49:50.281Z,77.80
2018-07-16T00:51:52.354Z,80.20
2018-07-16T00:53:54.449Z,83.30
2018-07-16T00:55:56.546Z,85.00
2018-07-16T00:57:58.617Z,86.30
2018-07-16T01:00:00.676Z,88.60
2018-07-16T01:02:02.726Z,84.60
2018-07-16T01:04:04.797Z,87.50
2018-07-16T01:06:06.859Z,85.00
2018-07-16T01:08:08.929Z,84.20
2018-07-16T01:10:11.036Z,82.50
2018-07-16T01:12:13.089Z,83.30
2018-07-16T01:14:15.133Z,84.10
2018-07-16T01:16:17.202Z,83.30
2018-07-16T01:18:19.272Z,85.00
2018-07-16T01:20:21.430Z,87.00
2018-07-16T01:22:23.525Z,88.90
2018-07-16T01:24:25.657Z,89.60
2018-07-16T01:26:27.741Z,90.70
2018-07-16T01:28:29.876Z,90.70
2018-07-16T01:30:31.934Z,90.80
2018-07-16T01:32:34.026Z,90.00
2018-07-16T01:34:36.525Z,90.90
2018-07-16T01:36:38.594Z,90.60
2018-07-16T01:38:40.697Z,90.60
2018-07-16T01:40:42.766Z,91.20
2018-07-16T01:42:44.906Z,92.20
2018-07-16T01:44:46.981Z,92.50
2018-07-16T01:46:49.052Z,88.90
2018-07-16T01:48:51.145Z,85.00
2018-07-16T01:50:53.245Z,86.10
2018-07-16T01:52:55.334Z,85.60
2018-07-16T01:54:57.413Z,87.70
2018-07-16T01:56:59.521Z,87.90
2018-07-16T01:59:01.576Z,87.40
2018-07-16T02:01:03.629Z,86.20
2018-07-16T02:03:05.689Z,87.40
2018-07-16T02:05:07.734Z,89.90
2018-07-16T02:07:09.789Z,91.00
2018-07-16T02:09:11.821Z,91.40
2018-07-16T02:11:13.890Z,91.30
2018-07-16T02:13:15.973Z,90.60
2018-07-16T02:15:18.037Z,89.40
2018-07-16T02:17:20.090Z,90.40
2018-07-16T02:19:22.159Z,90.00
2018-07-16T02:21:24.229Z,90.00
2018-07-16T02:23:26.318Z,89.40
2018-07-16T02:25:28.370Z,90.00
2018-07-16T02:27:30.425Z,91.00
2018-07-16T02:29:32.506Z,91.20
2018-07-16T02:31:34.586Z,90.50
2018-07-16T02:33:36.637Z,90.20
2018-07-16T02:35:38.904Z,90.70
2018-07-16T02:37:40.978Z,89.90
2018-07-16T02:39:43.076Z,88.50
2018-07-16T02:41:45.142Z,88.60
2018-07-16T02:43:47.211Z,88.10
2018-07-16T02:45:49.347Z,88.10
2018-07-16T02:47:51.538Z,87.40
2018-07-16T02:49:53.604Z,88.50
2018-07-16T02:51:55.654Z,88.00
2018-07-16T02:53:57.721Z,85.20
2018-07-16T02:55:59.785Z,83.50
2018-07-16T02:58:01.838Z,84.50
2018-07-16T03:00:04.282Z,87.20
2018-07-16T03:02:06.334Z,90.00
2018-07-16T03:04:08.399Z,90.80
2018-07-16T03:06:10.433Z,90.80
2018-07-16T03:08:12.478Z,91.10
2018-07-16T03:12:16.648Z,91.20
2018-07-16T03:14:18.697Z,90.80
2018-07-16T03:16:20.743Z,91.30
2018-07-16T03:18:22.799Z,90.80
2018-07-16T03:20:24.837Z,91.20
2018-07-16T03:22:26.907Z,89.80
2018-07-16T03:26:31.065Z,87.20
2018-07-16T03:28:33.107Z,88.20
2018-07-16T03:30:35.166Z,88.90
2018-07-16T03:32:37.215Z,90.20
2018-07-16T03:34:39.291Z,89.40
2018-07-16T03:36:41.330Z,90.60
2018-07-16T03:38:43.393Z,91.50
2018-07-16T03:40:45.445Z,91.80
2018-07-16T03:42:47.833Z,91.80
2018-07-16T03:44:49.914Z,92.40
2018-07-16T03:46:51.990Z,92.20
2018-07-16T03:48:54.046Z,92.10
2018-07-16T03:50:56.101Z,92.20
2018-07-16T03:52:58.164Z,93.20
2018-07-16T03:55:00.227Z,92.90
2018-07-16T03:57:02.500Z,93.20
2018-07-16T03:59:04.550Z,91.00
2018-07-16T04:01:06.699Z,90.10
2018-07-16T04:03:08.776Z,90.30
2018-07-16T04:05:10.854Z,91.20
2018-07-16T04:07:12.926Z,92.80
2018-07-16T04:09:14.986Z,93.10
2018-07-16T04:11:17.047Z,92.70
2018-07-16T04:13:19.106Z,93.10
2018-07-16T04:15:21.198Z,94.00
2018-07-16T04:17:23.314Z,94.60
2018-07-16T04:19:25.389Z,94.60
2018-07-16T04:21:27.449Z,94.60
2018-07-16T04:23:29.521Z,94.40
2018-07-16T04:25:31.573Z,95.10
2018-07-16T04:27:33.629Z,95.40
2018-07-16T04:29:35.708Z,95.90
2018-07-16T04:31:37.771Z,96.50
2018-07-16T04:33:39.817Z,96.40
2018-07-16T04:35:41.877Z,96.40
2018-07-16T04:37:43.923Z,96.00
2018-07-16T04:39:46.005Z,96.10
2018-07-16T04:41:48.049Z,96.00
2018-07-16T04:43:50.105Z,96.30
2018-07-16T04:45:52.165Z,96.20
2018-07-16T04:47:54.221Z,96.00
2018-07-16T04:49:56.315Z,95.90
2018-07-16T04:51:58.375Z,95.90
2018-07-16T04:54:00.469Z,95.80
2018-07-16T04:56:02.573Z,95.90
2018-07-16T04:58:04.709Z,95.80
2018-07-16T05:00:06.989Z,95.90
2018-07-16T05:02:09.221Z,95.70
2018-07-16T05:04:11.325Z,95.50
2018-07-16T05:06:13.432Z,95.50
2018-07-16T05:08:15.554Z,95.90
2018-07-16T05:12:19.795Z,95.30
2018-07-16T05:14:21.922Z,95.00
2018-07-16T05:16:24.034Z,94.90
2018-07-16T05:18:26.260Z,95.00
2018-07-16T05:20:28.149Z,94.40
2018-07-16T05:22:30.274Z,94.30
2018-07-16T05:24:32.297Z,94.70
2018-07-16T05:26:34.338Z,94.20
2018-07-16T05:28:36.357Z,93.50
2018-07-16T05:30:38.413Z,93.30
2018-07-16T05:32:40.567Z,93.90
2018-07-16T05:34:42.536Z,92.70
2018-07-16T05:36:44.578Z,92.40
2018-07-16T05:38:46.605Z,93.30
2018-07-16T05:40:48.641Z,92.60
2018-07-16T05:42:50.741Z,92.10
2018-07-16T05:44:52.790Z,92.20
2018-07-16T05:46:54.832Z,93.10
2018-07-16T05:48:56.857Z,92.80
2018-07-16T05:50:58.895Z,91.70
2018-07-16T05:53:00.921Z,90.70
2018-07-16T05:55:02.958Z,90.50
2018-07-16T05:57:04.970Z,90.40
2018-07-16T05:59:07.329Z,90.60
2018-07-16T06:01:09.360Z,85.70
2018-07-16T06:03:11.373Z,88.70
2018-07-16T06:05:13.394Z,84.90
2018-07-16T06:07:15.421Z,84.50
2018-07-16T06:09:17.437Z,82.40
2018-07-16T06:11:19.477Z,82.10
2018-07-16T06:13:21.502Z,84.00
2018-07-16T06:15:23.570Z,77.60
2018-07-16T06:17:25.599Z,79.70
2018-07-16T06:19:27.649Z,74.60
2018-07-16T06:21:29.689Z,71.70
2018-07-16T06:23:31.720Z,77.00
2018-07-16T06:25:33.775Z,76.30
2018-07-16T06:27:35.801Z,75.20
2018-07-16T06:29:37.826Z,73.90
2018-07-16T06:31:39.845Z,74.00
2018-07-16T06:33:41.893Z,67.80
2018-07-16T06:35:43.937Z,74.80
2018-07-16T06:37:45.965Z,74.50
2018-07-16T06:39:48.031Z,70.70
2018-07-16T06:41:50.142Z,65.30
2018-07-16T06:43:52.173Z,65.80
2018-07-16T06:45:54.206Z,64.20
2018-07-16T06:47:56.346Z,61.30
2018-07-16T06:49:58.303Z,61.20
2018-07-16T06:52:00.358Z,59.40
2018-07-16T06:54:02.693Z,57.30
2018-07-16T06:56:04.724Z,59.40
2018-07-16T06:58:06.749Z,56.60
2018-07-16T07:00:08.778Z,54.60
2018-07-16T07:02:10.861Z,57.20
2018-07-16T07:04:12.817Z,54.30
2018-07-16T07:06:14.842Z,48.40
2018-07-16T07:08:16.889Z,47.50
2018-07-16T07:10:18.941Z,50.10
2018-07-16T07:12:20.977Z,50.10
2018-07-16T07:14:23.010Z,47.50
2018-07-16T07:16:25.049Z,46.20
2018-07-16T07:18:27.070Z,44.60
2018-07-16T07:20:29.805Z,45.20
2018-07-16T07:22:31.821Z,42.20
2018-07-16T07:24:33.924Z,46.80
2018-07-16T07:26:35.961Z,44.70
2018-07-16T07:28:37.989Z,37.40
2018-07-16T07:30:40.007Z,48.60
2018-07-16T07:32:42.038Z,43.30
2018-07-16T07:34:44.054Z,39.80
2018-07-16T07:36:46.078Z,35.20
2018-07-16T07:38:48.089Z,38.10
2018-07-16T07:40:50.113Z,35.70
2018-07-16T07:42:52.132Z,34.20
2018-07-16T07:44:54.162Z,34.90
2018-07-16T07:46:56.182Z,36.80
2018-07-16T07:48:58.670Z,33.10
2018-07-16T07:51:00.695Z,34.30
2018-07-16T07:53:02.770Z,35.10
2018-07-16T07:55:05.193Z,34.40
2018-07-16T07:57:07.149Z,31.10
2018-07-16T07:59:09.182Z,37.90
2018-07-16T08:01:11.199Z,33.80
2018-07-16T08:03:13.247Z,33.00
2018-07-16T08:05:15.253Z,33.20
2018-07-16T08:07:17.341Z,30.20
2018-07-16T08:09:19.418Z,29.00
2018-07-16T08:11:21.449Z,28.50
2018-07-16T08:13:23.480Z,27.30
2018-07-16T08:15:25.517Z,31.10
2018-07-16T08:17:27.530Z,26.70
2018-07-16T08:19:29.552Z,24.00
2018-07-16T08:21:31.596Z,27.40
2018-07-16T08:23:33.629Z,28.30
2018-07-16T08:25:35.650Z,25.60
2018-07-16T08:27:37.714Z,24.40
2018-07-16T08:29:39.745Z,23.50
2018-07-16T08:31:41.773Z,24.20
2018-07-16T08:33:43.861Z,22.80
2018-07-16T08:35:45.834Z,22.10
2018-07-16T08:37:48.157Z,22.00
2018-07-16T08:39:50.190Z,20.00
2018-07-16T08:41:52.210Z,23.60
2018-07-16T08:43:54.237Z,20.50
2018-07-16T08:45:56.276Z,21.50
2018-07-16T08:47:58.310Z,23.50
2018-07-16T08:50:00.354Z,22.80
2018-07-16T08:52:02.373Z,21.30
2018-07-16T08:54:04.472Z,19.30
2018-07-16T08:56:06.488Z,16.20
2018-07-16T08:58:08.521Z,15.30
2018-07-16T09:00:10.529Z,19.70
2018-07-16T09:02:12.573Z,19.30
2018-07-16T09:04:14.613Z,17.80
2018-07-16T09:06:16.649Z,16.10
2018-07-16T09:08:18.673Z,17.40
2018-07-16T09:10:20.706Z,21.50
2018-07-16T09:12:22.745Z,16.00
2018-07-16T09:14:24.806Z,15.40
2018-07-16T09:16:26.846Z,16.50
2018-07-16T09:18:29.052Z,12.40
2018-07-16T09:20:31.118Z,12.80
2018-07-16T09:22:33.164Z,12.10
2018-07-16T09:24:35.234Z,12.70
2018-07-16T09:26:37.341Z,15.90
2018-07-16T09:28:39.342Z,14.30
2018-07-16T09:30:41.370Z,13.10
2018-07-16T09:32:43.463Z,12.20
2018-07-16T09:34:45.425Z,12.40
2018-07-16T09:36:47.510Z,11.80
2018-07-16T09:38:49.573Z,11.90
2018-07-16T09:40:51.612Z,16.70
2018-07-16T09:42:54.264Z,12.70
2018-07-16T09:45:13.055Z,11.60
2018-07-16T09:47:19.042Z,11.60
2018-07-16T09:49:31.765Z,12.00
2018-07-16T09:51:34.088Z,12.80
2018-07-16T09:53:51.262Z,9.30
2018-07-16T09:55:55.214Z,8.00
2018-07-16T09:58:00.913Z,11.60
2018-07-16T10:00:03.775Z,9.20
2018-07-16T10:02:14.013Z,13.50
2018-07-16T10:04:18.848Z,8.50
2018-07-16T10:06:21.314Z,10.30
2018-07-16T10:08:23.438Z,10.60
2018-07-16T10:10:37.329Z,8.50
2018-07-16T10:12:43.148Z,9.70
2018-07-16T10:16:58.244Z,9.90
2018-07-16T10:19:01.007Z,10.70
2018-07-16T10:23:47.814Z,7.40
2018-07-16T10:26:18.175Z,7.60
2018-07-16T10:28:20.503Z,6.10
2018-07-16T10:30:22.990Z,7.50
2018-07-16T10:32:26.517Z,9.60
2018-07-16T10:34:40.853Z,7.30
2018-07-16T10:36:51.528Z,6.10
2018-07-16T10:41:25.574Z,8.60
2018-07-16T10:43:27.784Z,6.10
2018-07-16T10:48:06.591Z,5.60
2018-07-16T10:50:22.454Z,7.00
2018-07-16T10:52:32.963Z,8.80
2018-07-16T10:54:45.343Z,9.00
2018-07-16T10:56:47.630Z,5.90
2018-07-16T10:58:49.786Z,6.90
2018-07-16T11:01:04.898Z,2.30
2018-07-16T11:03:07.617Z,4.90
2018-07-16T11:05:09.808Z,4.70
2018-07-16T11:07:11.815Z,6.50
2018-07-16T11:09:13.889Z,8.80
2018-07-16T11:11:15.935Z,5.20
2018-07-16T11:15:20.126Z,4.30
2018-07-16T11:17:22.177Z,4.70
2018-07-16T11:19:24.273Z,4.40
2018-07-16T11:21:48.971Z,2.70
2018-07-16T11:24:33.240Z,3.10
2018-07-16T11:28:40.364Z,7.00
2018-07-16T11:30:44.110Z,3.70
2018-07-16T11:32:46.145Z,2.90
2018-07-16T11:34:48.184Z,2.30
2018-07-16T11:36:50.189Z,4.60
2018-07-16T11:38:52.181Z,5.30
2018-07-16T11:40:54.192Z,2.60
2018-07-16T11:42:56.194Z,1.50
2018-07-16T11:44:58.185Z,2.10
2018-07-16T11:47:00.213Z,5.50
2018-07-16T11:49:02.207Z,1.80
2018-07-16T11:51:04.230Z,2.40
2018-07-16T11:53:06.257Z,2.50
2018-07-16T11:55:08.251Z,1.00
2018-07-16T11:57:10.272Z,1.00
2018-07-16T11:59:12.303Z,1.00
2018-07-16T12:01:14.302Z,1.80
2018-07-16T12:03:16.310Z,1.00
2018-07-16T12:05:18.411Z,1.00
2018-07-16T12:07:20.337Z,1.30
2018-07-16T12:09:22.372Z,2.00
2018-07-16T12:11:24.489Z,1.00
2018-07-16T12:13:26.498Z,1.00
2018-07-16T12:15:28.517Z,5.60
2018-07-16T12:17:30.528Z,1.00
2018-07-16T12:19:32.545Z,1.00
2018-07-16T12:21:34.574Z,1.00
2018-07-16T12:23:36.604Z,1.00
2018-07-16T12:25:38.624Z,1.00
2018-07-16T12:27:40.640Z,1.50
2018-07-16T12:29:42.677Z,1.90
2018-07-16T12:31:44.677Z,1.00
2018-07-16T12:33:46.678Z,1.00
2018-07-16T12:35:55.442Z,1.00
2018-07-16T12:37:57.445Z,1.00
2018-07-16T12:39:59.498Z,1.00
2018-07-16T12:42:01.519Z,1.00
2018-07-16T12:44:03.541Z,2.80
2018-07-16T12:46:05.569Z,1.50
2018-07-16T12:48:07.624Z,1.40
2018-07-16T12:50:09.637Z,1.00
2018-07-16T12:52:11.653Z,1.00
2018-07-16T12:54:13.705Z,1.00
2018-07-16T12:56:15.721Z,1.00
2018-07-16T12:58:17.738Z,1.00
2018-07-16T13:00:19.757Z,1.00
2018-07-16T13:02:21.808Z,1.00
2018-07-16T13:04:23.933Z,1.00
2018-07-16T13:06:25.951Z,1.00
2018-07-16T13:08:27.957Z,1.00
2018-07-16T13:10:30.010Z,1.00
2018-07-16T13:12:32.010Z,1.00
2018-07-16T13:14:34.021Z,1.00
2018-07-16T13:16:36.042Z,1.00
2018-07-16T13:18:38.042Z,1.00
2018-07-16T13:20:40.105Z,1.00
2018-07-16T13:22:42.122Z,1.00
2018-07-16T13:24:44.161Z,1.00
2018-07-16T13:26:46.180Z,1.00
2018-07-16T13:28:48.189Z,1.00
2018-07-16T13:30:50.205Z,1.00
2018-07-16T13:32:52.249Z,1.50
2018-07-16T13:34:54.261Z,1.00
2018-07-16T13:36:56.293Z,1.00
2018-07-16T13:38:58.304Z,1.00
2018-07-16T13:41:00.328Z,1.00
2018-07-16T13:43:02.355Z,1.00
2018-07-16T13:47:06.469Z,1.00
2018-07-16T13:51:10.585Z,1.00
2018-07-16T13:53:12.590Z,1.00
2018-07-16T13:55:14.611Z,2.00
2018-07-16T13:57:16.630Z,1.00
2018-07-16T13:59:19.020Z,1.00
2018-07-16T14:01:21.045Z,1.00
2018-07-16T14:03:23.075Z,1.00
2018-07-16T14:05:25.097Z,1.00
2018-07-16T14:07:27.137Z,1.00
2018-07-16T14:09:29.267Z,1.00
2018-07-16T14:11:31.302Z,1.00
2018-07-16T14:13:33.325Z,1.00
2018-07-16T14:15:35.505Z,1.00
2018-07-16T14:17:37.544Z,2.20
2018-07-16T14:19:39.586Z,1.00
2018-07-16T14:21:41.613Z,1.00
2018-07-16T14:23:43.637Z,1.00
2018-07-16T14:25:45.649Z,1.00
2018-07-16T14:27:47.669Z,1.00
2018-07-16T14:29:49.690Z,1.00
2018-07-16T14:31:51.715Z,1.00
2018-07-16T14:33:53.746Z,1.00
2018-07-16T14:35:55.819Z,1.00
2018-07-16T14:37:57.885Z,1.00
2018-07-16T14:40:00.481Z,1.00
2018-07-16T14:42:02.429Z,1.00
2018-07-16T14:44:04.436Z,1.00
2018-07-16T14:46:06.537Z,1.00
2018-07-16T14:48:08.530Z,1.00
2018-07-16T14:50:10.541Z,1.00
2018-07-16T14:52:12.554Z,1.00
2018-07-16T14:54:14.557Z,1.90
2018-07-16T14:56:16.565Z,1.30
2018-07-16T14:58:18.553Z,1.00
2018-07-16T15:00:20.546Z,1.00
2018-07-16T15:02:22.549Z,1.00
2018-07-16T15:04:24.545Z,1.00
2018-07-16T15:06:26.546Z,1.00
2018-07-16T15:08:28.564Z,1.00
2018-07-16T15:10:30.592Z,1.00
2018-07-16T15:12:32.584Z,1.00
2018-07-16T15:14:34.577Z,1.00
2018-07-16T15:16:36.602Z,1.00
2018-07-16T15:18:38.597Z,1.00
2018-07-16T15:20:40.716Z,1.80
2018-07-16T15:22:42.613Z,1.00
2018-07-16T15:24:44.637Z,1.00
2018-07-16T15:26:46.657Z,1.00
2018-07-16T15:28:48.649Z,1.00
2018-07-16T15:32:52.717Z,1.00
2018-07-16T15:34:54.708Z,1.00
2018-07-16T15:36:56.709Z,2.10
2018-07-16T15:38:58.711Z,1.70
2018-07-16T15:41:00.709Z,1.00
2018-07-16T15:45:04.793Z,1.80
2018-07-16T15:47:06.823Z,1.00
2018-07-16T15:49:08.836Z,1.00
2018-07-16T15:51:10.842Z,1.00
2018-07-16T15:53:12.853Z,1.00
2018-07-16T15:55:14.909Z,4.20
2018-07-16T15:57:16.913Z,1.20
2018-07-16T15:59:18.916Z,2.00
2018-07-16T16:01:20.910Z,6.00
2018-07-16T16:03:22.912Z,3.90
2018-07-16T16:05:24.896Z,3.00
2018-07-16T16:07:31.635Z,2.10
2018-07-16T16:09:34.006Z,3.20
2018-07-16T16:11:35.997Z,3.40
2018-07-16T16:13:38.005Z,3.70
2018-07-16T16:15:40.017Z,3.80
2018-07-16T16:17:42.030Z,4.60
2018-07-16T16:19:44.038Z,5.40
2018-07-16T16:21:46.030Z,5.70
2018-07-16T16:23:48.095Z,3.90
2018-07-16T16:25:50.089Z,6.40
2018-07-16T16:27:52.097Z,6.00
2018-07-16T16:29:54.100Z,3.00
2018-07-16T16:31:56.097Z,3.00
2018-07-16T16:33:58.097Z,3.40
2018-07-16T16:38:02.509Z,3.20
2018-07-16T16:40:04.509Z,3.50
2018-07-16T16:42:06.567Z,1.80
2018-07-16T16:44:08.544Z,4.00
2018-07-16T16:46:10.537Z,1.30
2018-07-16T16:48:12.534Z,2.10
2018-07-16T16:50:14.536Z,2.30
2018-07-16T16:52:16.556Z,4.10
2018-07-16T16:56:20.633Z,3.50
2018-07-16T16:58:22.724Z,2.40
2018-07-16T17:00:24.665Z,2.90
2018-07-16T17:02:26.669Z,2.20
2018-07-16T17:04:28.661Z,4.00
2018-07-16T17:06:30.656Z,2.90
2018-07-16T17:08:32.663Z,1.20
2018-07-16T17:10:34.661Z,1.70
2018-07-16T17:12:36.664Z,1.50
2018-07-16T17:16:40.754Z,2.50
2018-07-16T17:18:42.829Z,2.60
2018-07-16T17:20:44.874Z,2.20
2018-07-16T17:22:46.885Z,2.90
2018-07-16T17:24:48.890Z,3.00
2018-07-16T17:26:50.916Z,3.80
2018-07-16T17:28:52.937Z,3.90
2018-07-16T17:30:55.007Z,4.00
2018-07-16T17:32:57.030Z,3.20
2018-07-16T17:34:59.053Z,3.30
2018-07-16T17:37:01.146Z,1.80
2018-07-16T17:39:05.776Z,2.50
2018-07-16T17:41:07.805Z,2.90
2018-07-16T17:43:09.843Z,3.40
2018-07-16T17:47:14.113Z,3.10
2018-07-16T17:49:16.152Z,4.30
2018-07-16T17:51:19.884Z,3.80
2018-07-16T17:53:24.619Z,4.00
2018-07-16T17:58:24.770Z,5.60
2018-07-16T18:00:27.144Z,6.60
2018-07-16T18:02:29.273Z,5.00
2018-07-16T18:04:32.605Z,5.70
2018-07-16T18:06:34.725Z,5.30
2018-07-16T18:08:36.804Z,4.60
2018-07-16T18:10:38.894Z,4.40
2018-07-16T18:12:40.956Z,6.00
2018-07-16T18:14:43.053Z,5.50
2018-07-16T18:16:45.180Z,5.70
2018-07-16T18:18:47.253Z,7.10
2018-07-16T18:20:49.347Z,7.40
2018-07-16T18:22:51.450Z,5.80
2018-07-16T18:24:53.525Z,6.60
2018-07-16T18:26:55.597Z,6.00
2018-07-16T18:28:57.675Z,6.70
2018-07-16T18:31:00.081Z,7.50
2018-07-16T18:33:02.164Z,7.90
2018-07-16T18:35:04.241Z,8.00
2018-07-16T18:37:06.305Z,6.80
2018-07-16T18:39:09.128Z,7.10
2018-07-16T18:41:11.185Z,10.70
2018-07-16T18:43:13.288Z,7.20
2018-07-16T18:45:15.409Z,6.70
2018-07-16T18:47:17.518Z,6.60
2018-07-16T18:49:19.641Z,8.40
2018-07-16T18:51:21.701Z,7.80
2018-07-16T18:53:23.757Z,7.80
2018-07-16T18:55:25.841Z,9.70
2018-07-16T18:57:27.893Z,9.80
2018-07-16T18:59:29.973Z,9.40
2018-07-16T19:01:32.050Z,9.60
2018-07-16T19:03:37.335Z,9.00
2018-07-16T19:05:39.403Z,10.20
2018-07-16T19:07:41.464Z,9.90
2018-07-16T19:09:43.573Z,9.80
2018-07-16T19:11:45.635Z,9.90
2018-07-16T19:13:47.756Z,11.60
2018-07-16T19:15:49.839Z,9.80
2018-07-16T19:17:52.457Z,10.20
2018-07-16T19:19:54.557Z,10.40
2018-07-16T19:21:56.681Z,12.40
2018-07-16T19:23:58.778Z,14.10
2018-07-16T19:26:00.891Z,11.60
2018-07-16T19:28:03.034Z,12.60
2018-07-16T19:30:05.113Z,16.00
2018-07-16T19:32:07.188Z,18.90
2018-07-16T19:34:09.294Z,19.90
2018-07-16T19:36:11.354Z,23.10
2018-07-16T19:38:17.065Z,22.60
2018-07-16T19:40:19.117Z,24.30
2018-07-16T19:42:24.769Z,23.00
2018-07-16T19:44:26.848Z,27.20
2018-07-16T19:46:28.986Z,23.70
2018-07-16T19:48:31.198Z,26.30
2018-07-16T19:50:33.308Z,27.00
2018-07-16T19:52:35.424Z,26.10
2018-07-16T19:54:37.486Z,24.60
2018-07-16T19:56:39.514Z,24.20
2018-07-16T19:58:41.570Z,24.30
2018-07-16T20:00:43.811Z,25.40
2018-07-16T20:02:46.139Z,28.90
2018-07-16T20:04:48.136Z,28.50
2018-07-16T20:11:45.655Z,32.90
2018-07-16T20:13:47.705Z,31.00
2018-07-16T20:15:49.808Z,30.40
2018-07-16T20:17:51.906Z,30.80
2018-07-16T20:19:54.093Z,29.20
2018-07-16T20:21:56.144Z,30.10
2018-07-16T20:23:58.194Z,30.60
2018-07-16T20:26:00.245Z,30.20
2018-07-16T20:28:02.292Z,29.10
2018-07-16T20:30:06.595Z,31.30
2018-07-16T20:32:08.750Z,29.20
2018-07-16T20:34:10.845Z,31.00
2018-07-16T20:36:12.901Z,29.80
2018-07-16T20:38:15.030Z,29.20
2018-07-16T20:40:17.073Z,34.10
2018-07-16T20:42:19.156Z,36.60
2018-07-16T20:46:23.309Z,34.70
2018-07-16T20:48:25.380Z,39.30
2018-07-16T20:50:28.045Z,40.50
2018-07-16T20:52:30.113Z,41.20
2018-07-16T20:54:32.157Z,41.40
2018-07-16T20:56:34.222Z,41.20
2018-07-16T20:58:36.343Z,41.50
2018-07-16T21:00:38.377Z,38.10
2018-07-16T21:02:40.429Z,37.50
2018-07-16T21:04:42.469Z,38.70
2018-07-16T21:06:44.561Z,42.40
2018-07-16T21:08:46.618Z,43.80
2018-07-16T21:10:48.673Z,46.90
2018-07-16T21:12:50.714Z,48.80
2018-07-16T21:14:52.756Z,41.00
2018-07-16T21:16:55.826Z,41.40
2018-07-16T21:18:57.884Z,43.30
2018-07-16T21:20:59.949Z,39.90
2018-07-16T21:23:01.997Z,42.40
2018-07-16T21:25:05.422Z,42.30
2018-07-16T21:27:07.457Z,41.10
2018-07-16T21:29:09.485Z,43.00
2018-07-16T21:31:11.525Z,41.70
2018-07-16T21:33:13.582Z,45.20
2018-07-16T21:35:15.651Z,45.00
2018-07-16T21:37:17.967Z,47.40
2018-07-16T21:39:20.082Z,48.50
2018-07-16T21:41:22.188Z,49.30
2018-07-16T21:43:24.238Z,48.50
2018-07-16T21:45:26.290Z,45.70
2018-07-16T21:47:28.341Z,45.50
2018-07-16T21:49:30.376Z,47.20
2018-07-16T21:51:32.446Z,46.50
2018-07-16T21:53:34.588Z,47.10
2018-07-16T21:55:36.637Z,47.30
2018-07-16T21:57:38.692Z,47.10
2018-07-16T21:59:40.741Z,46.70
2018-07-16T22:01:42.785Z,48.20
2018-07-16T22:03:44.905Z,47.60
2018-07-16T22:05:47.701Z,48.80
2018-07-16T22:07:49.750Z,47.90
2018-07-16T22:09:51.835Z,50.00
2018-07-16T22:11:55.096Z,49.10
2018-07-16T22:13:57.194Z,50.90
2018-07-16T22:15:59.299Z,49.60
2018-07-16T22:49:18.117Z,52.20
2018-07-16T22:51:20.168Z,51.70
2018-07-16T22:53:22.234Z,53.80
2018-07-16T22:55:24.269Z,55.50
2018-07-16T22:57:26.765Z,55.60
2018-07-16T22:59:28.862Z,59.60
2018-07-16T23:01:30.933Z,59.10
2018-07-16T23:03:33.033Z,60.10
2018-07-16T23:05:35.117Z,60.10
2018-07-16T23:07:37.221Z,59.10
2018-07-16T23:09:39.260Z,59.70
2018-07-16T23:11:41.344Z,59.00
2018-07-16T23:13:43.426Z,57.80
2018-07-16T23:15:45.615Z,56.20
2018-07-16T23:17:47.715Z,55.30
2018-07-16T23:19:49.795Z,58.00
2018-07-16T23:21:51.834Z,59.20
2018-07-16T23:23:53.925Z,60.40
2018-07-16T23:25:56.018Z,61.70
2018-07-16T23:27:58.103Z,63.50
2018-07-16T23:30:00.191Z,63.30
2018-07-16T23:32:02.233Z,61.60
2018-07-16T23:34:04.424Z,62.00
2018-07-16T23:36:06.477Z,62.20
2018-07-16T23:38:08.537Z,63.50
2018-07-16T23:42:12.742Z,62.60
2018-07-16T23:44:14.823Z,62.90
2018-07-16T23:46:16.894Z,62.70
2018-07-16T23:48:18.998Z,64.40
2018-07-16T23:50:21.074Z,63.50
2018-07-16T23:52:23.181Z,64.20
2018-07-16T23:54:25.238Z,64.40
2018-07-16T23:56:27.319Z,65.90
2018-07-16T23:58:29.541Z,70.80
